sensor_id;sensor_type;location;lat;lon;timestamp;pressure;altitude;pressure_sealevel;temperature;humidity
28267;BME280;15525;45.568;5.448;2023-09-19T00:00:33;98108.50;;;23.11;60.04
28267;BME280;15525;45.568;5.448;2023-09-19T00:02:59;98118.38;;;23.16;59.75
28267;BME280;15525;45.568;5.448;2023-09-19T00:05:25;98127.53;;;23.08;59.85
28267;BME280;15525;45.568;5.448;2023-09-19T00:07:53;98122.53;;;22.98;60.05
28267;BME280;15525;45.568;5.448;2023-09-19T00:10:22;98125.44;;;22.89;60.44
28267;BME280;15525;45.568;5.448;2023-09-19T00:12:50;98131.09;;;22.96;60.36
28267;BME280;15525;45.568;5.448;2023-09-19T00:15:17;98126.63;;;23.04;60.28
28267;BME280;15525;45.568;5.448;2023-09-19T00:17:43;98121.59;;;23.06;59.95
28267;BME280;15525;45.568;5.448;2023-09-19T00:20:09;98123.00;;;23.00;60.12
28267;BME280;15525;45.568;5.448;2023-09-19T00:22:41;98124.59;;;23.01;60.57
28267;BME280;15525;45.568;5.448;2023-09-19T00:25:11;98122.41;;;23.06;60.22
28267;BME280;15525;45.568;5.448;2023-09-19T00:27:40;98124.97;;;23.15;60.17
28267;BME280;15525;45.568;5.448;2023-09-19T00:30:08;98118.16;;;23.21;60.04
28267;BME280;15525;45.568;5.448;2023-09-19T00:32:40;98124.50;;;23.25;59.80
28267;BME280;15525;45.568;5.448;2023-09-19T00:35:05;98118.72;;;23.14;60.13
28267;BME280;15525;45.568;5.448;2023-09-19T00:37:31;98115.13;;;23.10;60.34
28267;BME280;15525;45.568;5.448;2023-09-19T00:39:56;98106.19;;;23.13;60.35
28267;BME280;15525;45.568;5.448;2023-09-19T00:42:22;98104.53;;;23.09;60.30
28267;BME280;15525;45.568;5.448;2023-09-19T00:44:47;98092.81;;;23.08;60.44
28267;BME280;15525;45.568;5.448;2023-09-19T00:47:16;98094.63;;;23.04;60.33
28267;BME280;15525;45.568;5.448;2023-09-19T00:49:43;98087.28;;;22.93;60.52
28267;BME280;15525;45.568;5.448;2023-09-19T00:52:10;98097.31;;;22.89;60.72
28267;BME280;15525;45.568;5.448;2023-09-19T00:54:37;98107.47;;;22.88;60.40
28267;BME280;15525;45.568;5.448;2023-09-19T00:57:02;98100.41;;;22.87;60.49
28267;BME280;15525;45.568;5.448;2023-09-19T00:59:28;98110.50;;;22.99;60.34
28267;BME280;15525;45.568;5.448;2023-09-19T01:01:56;98123.00;;;23.00;60.42
28267;BME280;15525;45.568;5.448;2023-09-19T01:04:22;98126.06;;;22.98;60.21
28267;BME280;15525;45.568;5.448;2023-09-19T01:06:48;98132.56;;;22.94;60.42
28267;BME280;15525;45.568;5.448;2023-09-19T01:09:19;98127.31;;;23.01;60.19
28267;BME280;15525;45.568;5.448;2023-09-19T01:11:47;98119.84;;;23.13;60.07
28267;BME280;15525;45.568;5.448;2023-09-19T01:17:04;98122.28;;;23.03;60.41
28267;BME280;15525;45.568;5.448;2023-09-19T01:22:46;98124.59;;;23.01;60.37
28267;BME280;15525;45.568;5.448;2023-09-19T01:25:39;98120.03;;;23.05;60.55
28267;BME280;15525;45.568;5.448;2023-09-19T01:30:56;98114.47;;;23.01;60.60
28267;BME280;15525;45.568;5.448;2023-09-19T01:33:25;98122.09;;;22.96;60.58
28267;BME280;15525;45.568;5.448;2023-09-19T01:35:53;98119.16;;;22.89;60.79
28267;BME280;15525;45.568;5.448;2023-09-19T01:38:20;98127.56;;;22.96;60.59
28267;BME280;15525;45.568;5.448;2023-09-19T01:40:56;98133.38;;;22.94;60.80
28267;BME280;15525;45.568;5.448;2023-09-19T01:43:33;98125.50;;;22.93;60.56
28267;BME280;15525;45.568;5.448;2023-09-19T01:46:33;98130.28;;;22.96;60.75
28267;BME280;15525;45.568;5.448;2023-09-19T01:49:42;98127.31;;;23.01;60.78
28267;BME280;15525;45.568;5.448;2023-09-19T01:54:51;98124.78;;;22.80;60.92
28267;BME280;15525;45.568;5.448;2023-09-19T01:57:29;98128.09;;;22.74;61.10
28267;BME280;15525;45.568;5.448;2023-09-19T02:00:02;98129.00;;;22.66;61.58
28267;BME280;15525;45.568;5.448;2023-09-19T02:02:36;98127.41;;;22.77;61.24
28267;BME280;15525;45.568;5.448;2023-09-19T02:05:04;98126.09;;;22.86;61.05
28267;BME280;15525;45.568;5.448;2023-09-19T02:07:30;98124.38;;;22.94;60.88
28267;BME280;15525;45.568;5.448;2023-09-19T02:09:59;98126.75;;;22.95;60.88
28267;BME280;15525;45.568;5.448;2023-09-19T02:12:26;98126.97;;;23.02;61.03
28267;BME280;15525;45.568;5.448;2023-09-19T02:14:51;98129.88;;;23.09;60.85
28267;BME280;15525;45.568;5.448;2023-09-19T02:17:17;98127.53;;;23.08;60.74
28267;BME280;15525;45.568;5.448;2023-09-19T02:19:43;98125.66;;;23.12;60.77
28267;BME280;15525;45.568;5.448;2023-09-19T02:22:08;98124.63;;;23.16;60.62
28267;BME280;15525;45.568;5.448;2023-09-19T02:24:36;98122.47;;;23.22;60.68
28267;BME280;15525;45.568;5.448;2023-09-19T02:27:01;98125.91;;;23.19;60.64
28267;BME280;15525;45.568;5.448;2023-09-19T02:29:29;98124.97;;;23.15;60.86
28267;BME280;15525;45.568;5.448;2023-09-19T02:31:55;98133.16;;;23.15;60.68
28267;BME280;15525;45.568;5.448;2023-09-19T02:34:21;98135.25;;;23.06;61.14
28267;BME280;15525;45.568;5.448;2023-09-19T02:36:47;98128.00;;;22.98;61.52
28267;BME280;15525;45.568;5.448;2023-09-19T02:39:12;98133.34;;;23.06;61.33
28267;BME280;15525;45.568;5.448;2023-09-19T02:41:38;98127.63;;;23.11;61.15
28267;BME280;15525;45.568;5.448;2023-09-19T02:44:03;98122.94;;;23.12;61.13
28267;BME280;15525;45.568;5.448;2023-09-19T02:46:32;98129.19;;;23.12;61.02
28267;BME280;15525;45.568;5.448;2023-09-19T02:48:58;98125.00;;;23.03;61.13
28267;BME280;15525;45.568;5.448;2023-09-19T02:51:23;98133.19;;;22.87;61.42
28267;BME280;15525;45.568;5.448;2023-09-19T02:53:50;98118.38;;;22.88;62.05
28267;BME280;15525;45.568;5.448;2023-09-19T02:56:17;98122.28;;;23.03;61.67
28267;BME280;15525;45.568;5.448;2023-09-19T02:58:43;98127.53;;;23.08;61.37
28267;BME280;15525;45.568;5.448;2023-09-19T03:01:10;98130.13;;;23.04;61.53
28267;BME280;15525;45.568;5.448;2023-09-19T03:03:37;98132.09;;;23.04;61.60
28267;BME280;15525;45.568;5.448;2023-09-19T03:06:05;98126.88;;;22.99;61.74
28267;BME280;15525;45.568;5.448;2023-09-19T03:08:31;98120.78;;;22.90;62.01
28267;BME280;15525;45.568;5.448;2023-09-19T03:10:56;98123.34;;;22.98;61.92
28267;BME280;15525;45.568;5.448;2023-09-19T03:13:22;98122.66;;;23.01;61.68
28267;BME280;15525;45.568;5.448;2023-09-19T03:15:47;98119.47;;;22.99;61.97
28267;BME280;15525;45.568;5.448;2023-09-19T03:18:15;98123.34;;;22.98;61.83
28267;BME280;15525;45.568;5.448;2023-09-19T03:20:41;98128.56;;;23.03;61.88
28267;BME280;15525;45.568;5.448;2023-09-19T03:23:06;98124.59;;;23.01;61.87
28267;BME280;15525;45.568;5.448;2023-09-19T03:25:36;98123.78;;;23.00;61.87
28267;BME280;15525;45.568;5.448;2023-09-19T03:28:02;98135.50;;;23.01;61.87
28267;BME280;15525;45.568;5.448;2023-09-19T03:30:31;98133.47;;;22.98;61.73
28267;BME280;15525;45.568;5.448;2023-09-19T03:32:57;98141.91;;;22.93;61.77
28267;BME280;15525;45.568;5.448;2023-09-19T03:35:23;98147.94;;;22.86;62.05
28267;BME280;15525;45.568;5.448;2023-09-19T03:37:48;98155.72;;;22.84;61.98
28267;BME280;15525;45.568;5.448;2023-09-19T03:40:14;98144.88;;;22.88;62.01
28267;BME280;15525;45.568;5.448;2023-09-19T03:42:41;98143.59;;;22.97;61.96
28267;BME280;15525;45.568;5.448;2023-09-19T03:45:08;98147.13;;;22.98;61.76
28267;BME280;15525;45.568;5.448;2023-09-19T03:47:38;98145.59;;;22.85;61.72
28267;BME280;15525;45.568;5.448;2023-09-19T03:50:05;98152.75;;;22.77;62.35
28267;BME280;15525;45.568;5.448;2023-09-19T03:52:30;98144.88;;;22.88;61.97
28267;BME280;15525;45.568;5.448;2023-09-19T03:54:56;98145.88;;;22.95;61.81
28267;BME280;15525;45.568;5.448;2023-09-19T03:57:21;98143.84;;;22.92;61.77
28267;BME280;15525;45.568;5.448;2023-09-19T03:59:47;98157.50;;;22.92;61.91
28267;BME280;15525;45.568;5.448;2023-09-19T04:02:13;98154.22;;;22.87;61.86
28267;BME280;15525;45.568;5.448;2023-09-19T04:04:48;98155.72;;;22.72;62.30
28267;BME280;15525;45.568;5.448;2023-09-19T04:07:13;98165.53;;;22.73;62.27
28267;BME280;15525;45.568;5.448;2023-09-19T04:09:39;98158.22;;;22.77;61.94
28267;BME280;15525;45.568;5.448;2023-09-19T04:12:05;98159.44;;;22.80;61.97
28267;BME280;15525;45.568;5.448;2023-09-19T04:14:30;98160.41;;;22.72;62.14
28267;BME280;15525;45.568;5.448;2023-09-19T04:16:56;98165.41;;;22.70;62.08
28267;BME280;15525;45.568;5.448;2023-09-19T04:19:21;98168.38;;;22.65;62.11
28267;BME280;15525;45.568;5.448;2023-09-19T04:21:47;98164.50;;;22.66;62.08
28267;BME280;15525;45.568;5.448;2023-09-19T04:24:12;98151.56;;;22.63;62.12
28267;BME280;15525;45.568;5.448;2023-09-19T04:26:38;98158.94;;;22.62;62.03
28267;BME280;15525;45.568;5.448;2023-09-19T04:29:04;98159.94;;;22.70;61.81
28267;BME280;15525;45.568;5.448;2023-09-19T04:31:30;98166.88;;;22.67;61.78
28267;BME280;15525;45.568;5.448;2023-09-19T04:33:56;98156.88;;;22.71;61.58
28267;BME280;15525;45.568;5.448;2023-09-19T04:36:25;98168.47;;;22.68;61.51
28267;BME280;15525;45.568;5.448;2023-09-19T04:38:51;98170.66;;;22.63;61.59
28267;BME280;15525;45.568;5.448;2023-09-19T04:41:16;98170.19;;;22.61;61.28
28267;BME280;15525;45.568;5.448;2023-09-19T04:43:42;98167.25;;;22.54;61.22
28267;BME280;15525;45.568;5.448;2023-09-19T04:46:07;98183.28;;;22.43;61.58
28267;BME280;15525;45.568;5.448;2023-09-19T04:48:33;98185.44;;;22.50;61.41
28267;BME280;15525;45.568;5.448;2023-09-19T04:51:00;98188.19;;;22.50;61.39
28267;BME280;15525;45.568;5.448;2023-09-19T04:53:25;98181.78;;;22.34;61.63
28267;BME280;15525;45.568;5.448;2023-09-19T04:55:51;98181.56;;;22.27;61.69
28267;BME280;15525;45.568;5.448;2023-09-19T04:58:21;98185.88;;;22.28;61.55
28267;BME280;15525;45.568;5.448;2023-09-19T05:00:47;98180.44;;;22.28;61.67
28267;BME280;15525;45.568;5.448;2023-09-19T05:03:12;98193.06;;;22.32;61.54
28267;BME280;15525;45.568;5.448;2023-09-19T05:05:37;98185.00;;;22.48;61.17
28267;BME280;15525;45.568;5.448;2023-09-19T05:08:04;98194.66;;;22.45;61.09
28267;BME280;15525;45.568;5.448;2023-09-19T05:10:31;98201.59;;;22.31;61.32
28267;BME280;15525;45.568;5.448;2023-09-19T05:12:57;98202.72;;;22.18;61.51
28267;BME280;15525;45.568;5.448;2023-09-19T05:15:22;98212.25;;;22.24;61.45
28267;BME280;15525;45.568;5.448;2023-09-19T05:17:51;98220.19;;;22.29;61.18
28267;BME280;15525;45.568;5.448;2023-09-19T05:20:19;98212.16;;;22.32;61.12
28267;BME280;15525;45.568;5.448;2023-09-19T05:23:04;98221.25;;;22.48;60.97
28267;BME280;15525;45.568;5.448;2023-09-19T05:25:34;98216.47;;;22.57;60.75
28267;BME280;15525;45.568;5.448;2023-09-19T05:28:03;98220.56;;;22.63;60.89
28267;BME280;15525;45.568;5.448;2023-09-19T05:30:31;98219.88;;;22.66;60.62
28267;BME280;15525;45.568;5.448;2023-09-19T05:32:57;98223.63;;;22.62;60.98
28267;BME280;15525;45.568;5.448;2023-09-19T05:35:23;98220.91;;;22.62;60.91
28267;BME280;15525;45.568;5.448;2023-09-19T05:37:52;98229.91;;;22.62;60.99
28267;BME280;15525;45.568;5.448;2023-09-19T05:40:18;98236.03;;;22.59;60.92
28267;BME280;15525;45.568;5.448;2023-09-19T05:42:44;98237.97;;;22.59;60.73
28267;BME280;15525;45.568;5.448;2023-09-19T05:45:11;98235.94;;;22.56;60.94
28267;BME280;15525;45.568;5.448;2023-09-19T05:47:42;98239.13;;;22.58;61.05
28267;BME280;15525;45.568;5.448;2023-09-19T05:50:09;98242.63;;;22.58;61.09
28267;BME280;15525;45.568;5.448;2023-09-19T05:52:35;98235.47;;;22.66;60.92
28267;BME280;15525;45.568;5.448;2023-09-19T05:55:05;98236.16;;;22.63;61.19
28267;BME280;15525;45.568;5.448;2023-09-19T05:57:32;98243.06;;;22.72;60.95
28267;BME280;15525;45.568;5.448;2023-09-19T05:59:58;98246.47;;;22.81;60.60
28267;BME280;15525;45.568;5.448;2023-09-19T06:02:23;98235.91;;;22.80;60.58
28267;BME280;15525;45.568;5.448;2023-09-19T06:04:52;98248.44;;;22.81;60.27
28267;BME280;15525;45.568;5.448;2023-09-19T06:07:18;98250.16;;;22.73;60.89
28267;BME280;15525;45.568;5.448;2023-09-19T06:09:43;98256.38;;;22.74;61.15
28267;BME280;15525;45.568;5.448;2023-09-19T06:12:09;98250.78;;;22.82;60.87
28267;BME280;15525;45.568;5.448;2023-09-19T06:14:34;98258.41;;;22.89;60.60
28267;BME280;15525;45.568;5.448;2023-09-19T06:16:59;98261.94;;;22.89;60.68
28267;BME280;15525;45.568;5.448;2023-09-19T06:19:25;98263.53;;;22.90;60.61
28267;BME280;15525;45.568;5.448;2023-09-19T06:21:52;98255.44;;;22.94;60.45
28267;BME280;15525;45.568;5.448;2023-09-19T06:24:19;98257.72;;;23.04;60.37
28267;BME280;15525;45.568;5.448;2023-09-19T06:26:45;98263.47;;;23.14;60.04
28267;BME280;15525;45.568;5.448;2023-09-19T06:29:10;98257.91;;;23.11;60.15
28267;BME280;15525;45.568;5.448;2023-09-19T06:31:36;98259.97;;;23.14;60.13
28267;BME280;15525;45.568;5.448;2023-09-19T06:34:01;98266.22;;;23.14;60.14
28267;BME280;15525;45.568;5.448;2023-09-19T06:36:28;98256.56;;;23.17;60.18
28267;BME280;15525;45.568;5.448;2023-09-19T06:38:53;98265.66;;;23.21;59.93
28267;BME280;15525;45.568;5.448;2023-09-19T06:41:19;98267.03;;;23.27;59.79
28267;BME280;15525;45.568;5.448;2023-09-19T06:43:46;98268.81;;;23.35;59.68
28267;BME280;15525;45.568;5.448;2023-09-19T06:46:11;98261.63;;;23.42;59.43
28267;BME280;15525;45.568;5.448;2023-09-19T06:48:38;98258.78;;;23.39;59.45
28267;BME280;15525;45.568;5.448;2023-09-19T06:51:03;98266.63;;;23.40;59.29
28267;BME280;15525;45.568;5.448;2023-09-19T06:53:31;98254.22;;;23.43;59.34
28267;BME280;15525;45.568;5.448;2023-09-19T06:55:57;98261.91;;;23.53;59.28
28267;BME280;15525;45.568;5.448;2023-09-19T06:58:23;98263.88;;;23.52;59.06
28267;BME280;15525;45.568;5.448;2023-09-19T07:00:48;98263.78;;;23.49;59.05
28267;BME280;15525;45.568;5.448;2023-09-19T07:03:18;98263.78;;;23.49;59.09
28267;BME280;15525;45.568;5.448;2023-09-19T07:05:47;98256.34;;;23.49;58.83
28267;BME280;15525;45.568;5.448;2023-09-19T07:08:13;98267.94;;;23.58;58.65
28267;BME280;15525;45.568;5.448;2023-09-19T07:10:39;98267.94;;;23.58;58.77
28267;BME280;15525;45.568;5.448;2023-09-19T07:13:07;98265.78;;;23.52;58.97
28267;BME280;15525;45.568;5.448;2023-09-19T07:15:37;98259.78;;;23.46;58.85
28267;BME280;15525;45.568;5.448;2023-09-19T07:18:05;98260.59;;;23.47;58.99
28267;BME280;15525;45.568;5.448;2023-09-19T07:20:31;98255.03;;;23.43;59.11
28267;BME280;15525;45.568;5.448;2023-09-19T07:23:01;98261.31;;;23.59;59.04
28267;BME280;15525;45.568;5.448;2023-09-19T07:25:30;98261.06;;;23.64;58.68
28267;BME280;15525;45.568;5.448;2023-09-19T07:27:56;98260.69;;;23.78;58.61
28267;BME280;15525;45.568;5.448;2023-09-19T07:30:25;98268.53;;;23.79;58.43
28267;BME280;15525;45.568;5.448;2023-09-19T07:32:52;98264.41;;;23.85;58.46
28267;BME280;15525;45.568;5.448;2023-09-19T07:35:18;98268.84;;;23.90;58.49
28267;BME280;15525;45.568;5.448;2023-09-19T07:37:45;98264.97;;;23.91;58.48
28267;BME280;15525;45.568;5.448;2023-09-19T07:40:15;98276.56;;;24.00;58.22
28267;BME280;15525;45.568;5.448;2023-09-19T07:42:40;98277.06;;;24.05;58.38
28267;BME280;15525;45.568;5.448;2023-09-19T07:45:10;98283.19;;;24.14;58.04
28267;BME280;15525;45.568;5.448;2023-09-19T07:50:10;98290.44;;;24.22;57.54
28267;BME280;15525;45.568;5.448;2023-09-19T07:52:36;98286.88;;;24.22;57.25
28267;BME280;15525;45.568;5.448;2023-09-19T07:55:05;98281.81;;;24.36;57.21
28267;BME280;15525;45.568;5.448;2023-09-19T07:57:34;98272.63;;;24.59;56.75
28267;BME280;15525;45.568;5.448;2023-09-19T07:59:59;98268.41;;;24.96;56.37
28267;BME280;15525;45.568;5.448;2023-09-19T08:02:25;98273.50;;;25.67;54.87
28267;BME280;15525;45.568;5.448;2023-09-19T08:04:51;98276.81;;;25.95;54.17
28267;BME280;15525;45.568;5.448;2023-09-19T08:07:17;98277.66;;;26.18;53.71
28267;BME280;15525;45.568;5.448;2023-09-19T08:09:43;98284.66;;;26.15;54.01
28267;BME280;15525;45.568;5.448;2023-09-19T08:12:11;98290.09;;;26.12;54.23
28267;BME280;15525;45.568;5.448;2023-09-19T08:14:37;98290.19;;;26.38;53.48
28267;BME280;15525;45.568;5.448;2023-09-19T08:17:06;98291.25;;;26.11;53.63
28267;BME280;15525;45.568;5.448;2023-09-19T08:19:33;98300.06;;;25.63;54.25
28267;BME280;15525;45.568;5.448;2023-09-19T08:21:59;98304.81;;;25.28;54.71
28267;BME280;15525;45.568;5.448;2023-09-19T08:24:28;98292.56;;;24.91;54.95
28267;BME280;15525;45.568;5.448;2023-09-19T08:26:57;98299.56;;;24.88;55.11
28267;BME280;15525;45.568;5.448;2023-09-19T08:29:24;98296.06;;;25.07;54.68
28267;BME280;15525;45.568;5.448;2023-09-19T08:31:56;98300.22;;;25.51;53.88
28267;BME280;15525;45.568;5.448;2023-09-19T08:34:23;98294.16;;;25.99;52.60
28267;BME280;15525;45.568;5.448;2023-09-19T08:36:53;98284.38;;;26.43;51.95
28267;BME280;15525;45.568;5.448;2023-09-19T08:39:22;98283.16;;;26.40;51.75
28267;BME280;15525;45.568;5.448;2023-09-19T08:41:47;98290.72;;;26.47;51.69
28267;BME280;15525;45.568;5.448;2023-09-19T08:44:13;98294.34;;;26.51;51.50
28267;BME280;15525;45.568;5.448;2023-09-19T08:46:41;98292.25;;;26.67;51.22
28267;BME280;15525;45.568;5.448;2023-09-19T08:50:11;98302.13;;;26.94;51.10
28267;BME280;15525;45.568;5.448;2023-09-19T08:52:25;98302.31;;;26.82;51.16
28267;BME280;15525;45.568;5.448;2023-09-19T08:54:57;98311.22;;;26.53;51.80
28267;BME280;15525;45.568;5.448;2023-09-19T08:57:25;98298.22;;;26.50;52.32
28267;BME280;15525;45.568;5.448;2023-09-19T08:59:55;98296.44;;;26.57;52.12
28267;BME280;15525;45.568;5.448;2023-09-19T09:02:22;98295.88;;;26.48;52.06
28267;BME280;15525;45.568;5.448;2023-09-19T09:04:49;98290.53;;;26.36;52.20
28267;BME280;15525;45.568;5.448;2023-09-19T09:07:16;98291.81;;;26.42;52.15
28267;BME280;15525;45.568;5.448;2023-09-19T09:09:42;98281.91;;;27.09;50.57
28267;BME280;15525;45.568;5.448;2023-09-19T09:12:12;98285.88;;;27.67;49.52
28267;BME280;15525;45.568;5.448;2023-09-19T09:14:47;98291.06;;;28.05;48.89
28267;BME280;15525;45.568;5.448;2023-09-19T09:17:16;98279.81;;;28.20;48.55
28267;BME280;15525;45.568;5.448;2023-09-19T09:19:46;98280.31;;;28.29;48.46
28267;BME280;15525;45.568;5.448;2023-09-19T09:22:12;98274.81;;;28.33;48.17
28267;BME280;15525;45.568;5.448;2023-09-19T09:24:53;98274.06;;;28.32;47.79
28267;BME280;15525;45.568;5.448;2023-09-19T09:27:20;98274.59;;;28.45;47.84
28267;BME280;15525;45.568;5.448;2023-09-19T09:29:49;98281.88;;;28.71;47.67
28267;BME280;15525;45.568;5.448;2023-09-19T09:32:28;98284.34;;;28.39;46.95
28267;BME280;15525;45.568;5.448;2023-09-19T09:34:56;98282.47;;;27.77;48.54
28267;BME280;15525;45.568;5.448;2023-09-19T09:37:22;98280.00;;;27.68;48.96
28267;BME280;15525;45.568;5.448;2023-09-19T09:40:00;98277.41;;;27.20;48.91
28267;BME280;15525;45.568;5.448;2023-09-19T09:42:44;98274.00;;;27.30;47.92
28267;BME280;15525;45.568;5.448;2023-09-19T09:45:22;98279.06;;;27.28;49.40
28267;BME280;15525;45.568;5.448;2023-09-19T09:48:02;98279.38;;;27.49;48.92
28267;BME280;15525;45.568;5.448;2023-09-19T09:50:30;98272.38;;;27.55;48.27
28267;BME280;15525;45.568;5.448;2023-09-19T09:56:04;98272.06;;;27.93;47.67
28267;BME280;15525;45.568;5.448;2023-09-19T09:58:37;98269.75;;;27.98;47.89
28267;BME280;15525;45.568;5.448;2023-09-19T10:01:14;98267.69;;;28.25;46.75
28267;BME280;15525;45.568;5.448;2023-09-19T10:03:41;98266.06;;;28.61;46.17
28267;BME280;15525;45.568;5.448;2023-09-19T10:06:15;98256.09;;;29.64;44.55
28267;BME280;15525;45.568;5.448;2023-09-19T10:09:08;98252.78;;;29.34;43.83
28267;BME280;15525;45.568;5.448;2023-09-19T10:12:02;98261.03;;;28.73;45.58
28267;BME280;15525;45.568;5.448;2023-09-19T10:14:30;98259.81;;;27.87;46.40
28267;BME280;15525;45.568;5.448;2023-09-19T10:16:59;98250.94;;;28.04;46.13
28267;BME280;15525;45.568;5.448;2023-09-19T10:19:30;98257.47;;;27.89;45.64
28267;BME280;15525;45.568;5.448;2023-09-19T10:22:00;98248.31;;;28.14;45.18
28267;BME280;15525;45.568;5.448;2023-09-19T10:24:28;98251.31;;;28.90;43.14
28267;BME280;15525;45.568;5.448;2023-09-19T10:26:53;98238.63;;;29.39;42.43
28267;BME280;15525;45.568;5.448;2023-09-19T10:29:21;98242.38;;;29.85;41.71
28267;BME280;15525;45.568;5.448;2023-09-19T10:31:47;98242.75;;;29.91;41.14
28267;BME280;15525;45.568;5.448;2023-09-19T10:34:17;98247.97;;;29.14;42.23
28267;BME280;15525;45.568;5.448;2023-09-19T10:36:46;98259.44;;;28.69;43.31
28267;BME280;15525;45.568;5.448;2023-09-19T10:39:15;98254.16;;;28.50;42.55
28267;BME280;15525;45.568;5.448;2023-09-19T10:41:51;98257.06;;;28.67;42.11
28267;BME280;15525;45.568;5.448;2023-09-19T10:44:21;98249.06;;;29.81;40.56
28267;BME280;15525;45.568;5.448;2023-09-19T10:46:49;98241.53;;;29.67;40.03
28267;BME280;15525;45.568;5.448;2023-09-19T10:49:14;98241.72;;;29.34;40.98
28267;BME280;15525;45.568;5.448;2023-09-19T10:51:42;98245.66;;;29.30;41.41
28267;BME280;15525;45.568;5.448;2023-09-19T10:54:18;98241.09;;;28.94;40.76
28267;BME280;15525;45.568;5.448;2023-09-19T10:56:48;98231.97;;;29.54;40.61
28267;BME280;15525;45.568;5.448;2023-09-19T10:59:18;98233.78;;;30.64;38.77
28267;BME280;15525;45.568;5.448;2023-09-19T11:04:26;98223.94;;;30.84;38.70
28267;BME280;15525;45.568;5.448;2023-09-19T11:07:08;98226.25;;;31.13;38.12
28267;BME280;15525;45.568;5.448;2023-09-19T11:09:50;98227.03;;;31.17;38.09
28267;BME280;15525;45.568;5.448;2023-09-19T11:14:58;98221.28;;;31.77;36.94
28267;BME280;15525;45.568;5.448;2023-09-19T11:33:24;98219.97;;;30.46;37.60
28267;BME280;15525;45.568;5.448;2023-09-19T11:36:05;98212.88;;;30.73;36.10
28267;BME280;15525;45.568;5.448;2023-09-19T11:46:29;98209.47;;;31.62;34.80
28267;BME280;15525;45.568;5.448;2023-09-19T11:49:07;98208.22;;;31.81;33.63
28267;BME280;15525;45.568;5.448;2023-09-19T11:51:40;98214.97;;;31.69;34.43
28267;BME280;15525;45.568;5.448;2023-09-19T11:54:10;98219.09;;;31.19;34.13
28267;BME280;15525;45.568;5.448;2023-09-19T11:56:43;98211.97;;;31.32;34.46
28267;BME280;15525;45.568;5.448;2023-09-19T11:59:09;98213.06;;;32.28;33.90
28267;BME280;15525;45.568;5.448;2023-09-19T12:01:38;98214.78;;;32.59;33.74
28267;BME280;15525;45.568;5.448;2023-09-19T12:04:11;98204.81;;;33.09;33.33
28267;BME280;15525;45.568;5.448;2023-09-19T12:06:37;98202.03;;;33.76;32.82
28267;BME280;15525;45.568;5.448;2023-09-19T12:09:04;98198.63;;;33.91;32.30
28267;BME280;15525;45.568;5.448;2023-09-19T12:11:41;98206.41;;;33.43;32.89
28267;BME280;15525;45.568;5.448;2023-09-19T12:14:08;98215.34;;;32.87;33.67
28267;BME280;15525;45.568;5.448;2023-09-19T12:16:33;98208.34;;;33.13;33.79
28267;BME280;15525;45.568;5.448;2023-09-19T12:19:17;98205.00;;;33.28;33.13
28267;BME280;15525;45.568;5.448;2023-09-19T12:22:02;98199.25;;;33.46;32.61
28267;BME280;15525;45.568;5.448;2023-09-19T12:24:30;98186.75;;;32.90;33.20
28267;BME280;15525;45.568;5.448;2023-09-19T12:27:05;98163.75;;;32.53;32.50
28267;BME280;15525;45.568;5.448;2023-09-19T12:29:32;98178.19;;;32.34;32.22
28267;BME280;15525;45.568;5.448;2023-09-19T12:32:07;98169.63;;;31.35;32.61
28267;BME280;15525;45.568;5.448;2023-09-19T12:34:33;98180.78;;;31.07;34.90
28267;BME280;15525;45.568;5.448;2023-09-19T12:37:14;98164.25;;;31.83;32.51
28267;BME280;15525;45.568;5.448;2023-09-19T12:40:04;98157.19;;;30.71;32.51
28267;BME280;15525;45.568;5.448;2023-09-19T12:42:42;98151.97;;;31.08;32.32
28267;BME280;15525;45.568;5.448;2023-09-19T12:45:09;98152.09;;;30.24;33.18
28267;BME280;15525;45.568;5.448;2023-09-19T12:47:35;98141.78;;;29.90;33.84
28267;BME280;15525;45.568;5.448;2023-09-19T12:50:14;98152.06;;;30.49;34.29
28267;BME280;15525;45.568;5.448;2023-09-19T12:52:49;98161.09;;;29.93;34.83
28267;BME280;15525;45.568;5.448;2023-09-19T12:55:26;98167.25;;;31.41;34.07
28267;BME280;15525;45.568;5.448;2023-09-19T12:58:12;98161.59;;;32.23;33.38
28267;BME280;15525;45.568;5.448;2023-09-19T13:00:40;98142.81;;;32.89;31.31
28267;BME280;15525;45.568;5.448;2023-09-19T13:03:14;98151.50;;;33.54;32.36
28267;BME280;15525;45.568;5.448;2023-09-19T13:05:54;98154.19;;;33.61;32.30
28267;BME280;15525;45.568;5.448;2023-09-19T13:08:21;98151.63;;;33.47;32.51
28267;BME280;15525;45.568;5.448;2023-09-19T13:13:46;98150.47;;;30.09;34.77
28267;BME280;15525;45.568;5.448;2023-09-19T13:16:19;98135.16;;;31.54;33.71
28267;BME280;15525;45.568;5.448;2023-09-19T13:18:48;98135.28;;;32.86;33.96
28267;BME280;15525;45.568;5.448;2023-09-19T13:21:17;98109.66;;;33.08;32.08
28267;BME280;15525;45.568;5.448;2023-09-19T13:23:53;98115.78;;;32.93;30.59
28267;BME280;15525;45.568;5.448;2023-09-19T13:26:27;98123.50;;;33.12;30.65
28267;BME280;15525;45.568;5.448;2023-09-19T13:28:56;98117.06;;;31.35;32.40
28267;BME280;15525;45.568;5.448;2023-09-19T13:31:21;98121.19;;;32.22;31.94
28267;BME280;15525;45.568;5.448;2023-09-19T13:33:48;98118.97;;;31.49;31.29
28267;BME280;15525;45.568;5.448;2023-09-19T13:36:14;98122.16;;;31.44;31.94
28267;BME280;15525;45.568;5.448;2023-09-19T13:38:41;98133.44;;;31.81;31.63
28267;BME280;15525;45.568;5.448;2023-09-19T13:41:10;98108.19;;;32.19;31.16
28267;BME280;15525;45.568;5.448;2023-09-19T13:43:38;98126.69;;;33.10;29.98
28267;BME280;15525;45.568;5.448;2023-09-19T13:46:04;98106.78;;;33.45;31.29
28267;BME280;15525;45.568;5.448;2023-09-19T13:48:32;98116.00;;;32.31;29.83
28267;BME280;15525;45.568;5.448;2023-09-19T13:51:02;98109.97;;;31.96;31.30
28267;BME280;15525;45.568;5.448;2023-09-19T13:53:28;98098.44;;;31.39;32.31
28267;BME280;15525;45.568;5.448;2023-09-19T13:55:54;98075.94;;;32.39;30.33
28267;BME280;15525;45.568;5.448;2023-09-19T13:58:19;98083.94;;;32.71;30.61